Time;durP1;ratioP1;P1;durP2;ratioP2;P2;SDS_P1;SDS_P2;PMS_P1;PMS_P2;Temp;Humidity;BMP_temperature;BMP_pressure;BME280_temperature;BME280_humidity;BME280_pressure;Samples;Min_cycle;Max_cycle;Signal;HPM_P1;HPM_P2
2022/12/04 00:01:17;;;;;;;;;;;;;;;3.14;100.00;100961.44;5061483;28;19947;-61
2022/12/04 00:03:43;;;;;;;;;;;;;;;3.10;100.00;100967.94;5057669;28;19924;-60
2022/12/04 00:06:10;;;;;;;;;;;;;;;3.00;100.00;100957.41;5060452;28;19924;-61
2022/12/04 00:08:35;;;;;;;;;;;;;;;2.79;100.00;100962.66;5051588;28;20504;-61
2022/12/04 00:11:02;;;;;;;;;;;;;;;2.73;100.00;100970.19;5045318;28;20019;-62
2022/12/04 00:13:27;;;;;;;;;;;;;;;2.71;100.00;100972.94;5058761;28;19921;-61
2022/12/04 00:15:53;;;;;;;;;;;;;;;2.71;100.00;100967.72;5049468;28;20647;-61
2022/12/04 00:18:18;;;;;;;;;;;;;;;2.57;100.00;100966.22;5062438;28;20319;-61
2022/12/04 00:20:43;;;;;;;;;;;;;;;2.39;100.00;100965.13;5055764;28;19935;-60
2022/12/04 00:23:09;;;;;;;;;;;;;;;2.34;100.00;100968.13;5058306;28;20339;-60
2022/12/04 00:25:34;;;;;;;;;;;;;;;2.45;100.00;100966.41;5055887;28;19929;-60
2022/12/04 00:27:59;;;;;;;;;;;;;;;2.38;100.00;100956.44;5050303;28;19936;-60
2022/12/04 00:30:24;;;;;;;;;;;;;;;2.44;100.00;100949.06;5053196;28;19925;-60
2022/12/04 00:32:50;;;;;;;;;;;;;;;2.44;100.00;100951.66;5053601;28;19921;-60
2022/12/04 00:35:15;;;;;;;;;;;;;;;2.36;100.00;100952.31;5052848;28;19981;-61
2022/12/04 00:37:40;;;;;;;;;;;;;;;2.30;100.00;100947.59;5053084;28;19974;-60
2022/12/04 00:40:06;;;;;;;;;;;;;;;2.27;100.00;100951.28;5055871;28;19921;-59
2022/12/04 00:42:31;;;;;;;;;;;;;;;2.15;100.00;100947.03;5056558;28;20015;-61
2022/12/04 00:44:56;;;;;;;;;;;;;;;2.14;100.00;100948.84;5040001;28;20011;-59
2022/12/04 00:47:22;;;;;;;;;;;;;;;2.08;100.00;100953.72;5039103;28;20289;-61
2022/12/04 00:49:47;;;;;;;;;;;;;;;2.03;100.00;100946.25;5037240;28;20384;-61
2022/12/04 00:52:12;;;;;;;;;;;;;;;2.04;100.00;100941.84;5045261;28;19920;-60
2022/12/04 00:54:37;;;;;;;;;;;;;;;1.99;100.00;100949.22;5057973;28;20282;-61
2022/12/04 00:57:02;;;;;;;;;;;;;;;1.89;100.00;100944.75;5055044;28;20296;-61
2022/12/04 00:59:28;;;;;;;;;;;;;;;1.94;100.00;100937.34;5053929;28;20369;-60
2022/12/04 01:01:53;;;;;;;;;;;;;;;1.96;100.00;100934.59;5062008;28;19966;-61
2022/12/04 01:04:18;;;;;;;;;;;;;;;1.97;100.00;100946.75;5056899;28;19956;-61
2022/12/04 01:06:45;;;;;;;;;;;;;;;1.96;100.00;100943.31;5056194;28;19921;-61
2022/12/04 01:09:10;;;;;;;;;;;;;;;1.96;100.00;100938.06;5036229;28;20371;-60
2022/12/04 01:11:35;;;;;;;;;;;;;;;2.00;100.00;100940.44;5060666;28;20330;-61
2022/12/04 01:14:01;;;;;;;;;;;;;;;1.93;100.00;100935.69;5054637;28;19929;-61
2022/12/04 01:16:29;;;;;;;;;;;;;;;1.83;100.00;100929.53;5055306;28;20249;-60
2022/12/04 01:18:54;;;;;;;;;;;;;;;1.78;100.00;100930.84;5056204;28;19921;-59
2022/12/04 01:21:20;;;;;;;;;;;;;;;1.77;100.00;100927.41;5060846;28;19924;-56
2022/12/04 01:23:45;;;;;;;;;;;;;;;1.76;100.00;100928.38;5054694;28;20366;-59
2022/12/04 01:26:11;;;;;;;;;;;;;;;1.72;100.00;100919.94;5039175;28;19943;-60
2022/12/04 01:28:36;;;;;;;;;;;;;;;1.68;100.00;100925.56;5055295;28;19935;-60
2022/12/04 01:31:08;;;;;;;;;;;;;;;1.65;100.00;100920.56;5055487;28;20019;-60
2022/12/04 01:33:35;;;;;;;;;;;;;;;1.68;100.00;100926.38;5052389;28;19921;-60
2022/12/04 01:36:01;;;;;;;;;;;;;;;1.56;100.00;100935.19;5053074;28;20019;-58
2022/12/04 01:38:26;;;;;;;;;;;;;;;1.54;100.00;100934.47;5053005;28;19924;-61
2022/12/04 01:40:52;;;;;;;;;;;;;;;1.64;100.00;100929.34;5057466;28;20037;-56
2022/12/04 01:43:18;;;;;;;;;;;;;;;1.74;100.00;100932.91;5059039;28;19927;-60
2022/12/04 01:45:49;;;;;;;;;;;;;;;1.83;100.00;100920.84;5058752;28;20075;-60
2022/12/04 01:48:27;;;;;;;;;;;;;;;1.98;100.00;100932.69;5053985;28;19927;-58
2022/12/04 01:51:05;;;;;;;;;;;;;;;2.16;100.00;100933.00;5058920;28;20319;-60
2022/12/04 01:53:30;;;;;;;;;;;;;;;2.21;100.00;100930.81;5060169;28;19946;-61
2022/12/04 01:55:56;;;;;;;;;;;;;;;2.24;100.00;100925.34;5054422;28;19920;-60
2022/12/04 01:58:24;;;;;;;;;;;;;;;2.34;100.00;100921.00;5059806;28;19921;-60
2022/12/04 02:00:51;;;;;;;;;;;;;;;2.44;100.00;100922.88;5071657;28;19924;-60
2022/12/04 02:03:16;;;;;;;;;;;;;;;2.51;100.00;100913.56;5046244;28;19966;-60
2022/12/04 02:05:41;;;;;;;;;;;;;;;2.64;100.00;100902.91;5051750;28;20324;-59
2022/12/04 02:08:06;;;;;;;;;;;;;;;2.65;100.00;100909.78;5060364;28;19952;-60
2022/12/04 02:10:35;;;;;;;;;;;;;;;2.69;100.00;100901.53;5056071;28;20271;-59
2022/12/04 02:13:01;;;;;;;;;;;;;;;2.76;100.00;100907.06;5067439;28;19928;-60
2022/12/04 02:15:35;;;;;;;;;;;;;;;2.81;100.00;100905.75;5059577;28;20344;-59
2022/12/04 02:18:03;;;;;;;;;;;;;;;2.82;100.00;100909.19;5056052;28;20336;-59
2022/12/04 02:20:37;;;;;;;;;;;;;;;2.78;100.00;100900.75;5057642;28;19946;-59
2022/12/04 02:23:05;;;;;;;;;;;;;;;2.84;100.00;100900.25;5060638;28;19920;-59
2022/12/04 02:25:30;;;;;;;;;;;;;;;2.81;100.00;100900.50;5061390;28;20018;-59
2022/12/04 02:27:55;;;;;;;;;;;;;;;2.83;100.00;100893.34;5054798;28;20083;-59
2022/12/04 02:30:21;;;;;;;;;;;;;;;2.90;100.00;100893.66;5061905;28;19948;-60
2022/12/04 02:32:52;;;;;;;;;;;;;;;2.89;100.00;100891.16;5043951;28;19985;-59
2022/12/04 02:35:39;;;;;;;;;;;;;;;2.83;100.00;100898.56;5061011;28;19921;-58
2022/12/04 02:38:09;;;;;;;;;;;;;;;2.86;100.00;100902.72;5051608;28;20463;-60
2022/12/04 02:40:49;;;;;;;;;;;;;;;2.92;100.00;100899.59;5049732;28;20378;-60
2022/12/04 02:43:17;;;;;;;;;;;;;;;2.95;100.00;100896.72;5055960;28;19928;-59
2022/12/04 02:45:47;;;;;;;;;;;;;;;2.95;100.00;100886.22;5054004;28;19928;-59
2022/12/04 02:48:15;;;;;;;;;;;;;;;2.98;100.00;100882.50;5055304;28;19921;-60
2022/12/04 02:50:40;;;;;;;;;;;;;;;2.99;100.00;100873.69;5061879;28;20347;-61
2022/12/04 02:53:15;;;;;;;;;;;;;;;2.97;100.00;100883.47;5039775;28;19952;-61
2022/12/04 02:56:02;;;;;;;;;;;;;;;2.98;100.00;100877.28;5058453;28;20007;-60
2022/12/04 02:58:29;;;;;;;;;;;;;;;3.00;100.00;100876.19;5053059;28;19928;-59
2022/12/04 03:00:56;;;;;;;;;;;;;;;2.98;100.00;100890.38;5056349;28;19956;-61
2022/12/04 03:03:23;;;;;;;;;;;;;;;3.00;100.00;100878.81;5051938;28;19927;-61
2022/12/04 03:06:04;;;;;;;;;;;;;;;2.99;100.00;100866.66;5033097;28;20320;-61
2022/12/04 03:08:42;;;;;;;;;;;;;;;2.97;100.00;100873.84;5059913;28;20019;-61
2022/12/04 03:11:07;;;;;;;;;;;;;;;2.97;100.00;100868.59;5050411;28;19964;-61
2022/12/04 03:13:42;;;;;;;;;;;;;;;2.98;100.00;100867.63;5054405;28;19971;-61
2022/12/04 03:16:20;;;;;;;;;;;;;;;2.94;100.00;100874.06;5056140;28;19990;-61
2022/12/04 03:19:05;;;;;;;;;;;;;;;2.93;100.00;100863.75;5058850;28;20417;-61
2022/12/04 03:21:33;;;;;;;;;;;;;;;2.94;100.00;100866.22;5057139;28;20015;-60
2022/12/04 03:24:05;;;;;;;;;;;;;;;2.95;100.00;100869.69;5051558;28;19925;-60
2022/12/04 03:26:36;;;;;;;;;;;;;;;2.95;100.00;100867.91;5052652;28;19916;-59
2022/12/04 03:29:11;;;;;;;;;;;;;;;2.94;100.00;100868.00;5051860;28;19929;-60
2022/12/04 03:31:44;;;;;;;;;;;;;;;2.94;100.00;100868.00;5059833;28;19990;-61
2022/12/04 03:34:11;;;;;;;;;;;;;;;2.94;100.00;100871.44;5058305;28;19924;-61
2022/12/04 03:36:43;;;;;;;;;;;;;;;2.93;100.00;100863.75;5062181;28;20023;-60
2022/12/04 03:39:18;;;;;;;;;;;;;;;2.92;100.00;100865.53;5056721;28;19935;-60
2022/12/04 03:41:45;;;;;;;;;;;;;;;2.91;100.00;100857.81;5055389;28;19928;-60
2022/12/04 03:44:14;;;;;;;;;;;;;;;3.01;100.00;100856.03;5055331;28;19924;-61
2022/12/04 03:46:45;;;;;;;;;;;;;;;2.98;100.00;100859.75;5048802;28;20378;-59
2022/12/04 03:49:23;;;;;;;;;;;;;;;2.99;100.00;100856.16;5035454;28;19925;-61
2022/12/04 03:51:57;;;;;;;;;;;;;;;3.04;100.00;100858.41;5039879;28;20297;-60
2022/12/04 03:54:27;;;;;;;;;;;;;;;3.02;100.00;100861.16;5043429;28;20470;-61
2022/12/04 03:56:59;;;;;;;;;;;;;;;2.94;100.00;100862.78;5050585;28;20279;-61
2022/12/04 03:59:29;;;;;;;;;;;;;;;2.86;100.00;100854.75;5059621;28;19929;-61
2022/12/04 04:01:57;;;;;;;;;;;;;;;2.81;100.00;100848.13;5060165;28;20154;-61
2022/12/04 04:04:26;;;;;;;;;;;;;;;2.80;100.00;100843.00;5052235;28;20553;-60
2022/12/04 04:06:57;;;;;;;;;;;;;;;2.82;100.00;100844.53;5054430;28;19928;-59
2022/12/04 04:09:24;;;;;;;;;;;;;;;2.85;100.00;100838.22;5053726;28;20024;-60
2022/12/04 04:12:04;;;;;;;;;;;;;;;2.89;100.00;100841.38;5051819;28;19936;-59
2022/12/04 04:25:41;;;;;;;;;;;;;;;2.88;100.00;100856.28;5063213;28;19931;-61
2022/12/04 04:28:26;;;;;;;;;;;;;;;2.90;100.00;100850.91;5056605;28;19921;-59
2022/12/04 04:30:51;;;;;;;;;;;;;;;2.88;100.00;100856.28;5051794;28;19921;-61
2022/12/04 04:33:16;;;;;;;;;;;;;;;2.86;100.00;100865.22;5047739;28;20404;-61
2022/12/04 04:35:51;;;;;;;;;;;;;;;2.84;100.00;100847.03;5056014;28;19932;-61
2022/12/04 04:38:27;;;;;;;;;;;;;;;2.85;100.00;100856.53;5056128;28;19933;-60
2022/12/04 04:40:57;;;;;;;;;;;;;;;2.88;100.00;100858.91;5057894;28;19920;-59
2022/12/04 04:43:29;;;;;;;;;;;;;;;2.88;100.00;100863.31;5060550;28;20420;-61
2022/12/04 04:45:57;;;;;;;;;;;;;;;2.89;100.00;100864.97;5055165;28;20302;-61
2022/12/04 04:48:26;;;;;;;;;;;;;;;2.88;100.00;100860.69;5058372;28;19928;-61
2022/12/04 04:50:52;;;;;;;;;;;;;;;2.84;100.00;100868.81;5056061;28;20003;-61
2022/12/04 04:53:20;;;;;;;;;;;;;;;2.80;100.00;100870.03;5053370;28;20429;-61
2022/12/04 04:55:45;;;;;;;;;;;;;;;2.74;100.00;100861.88;5051134;28;19948;-61
2022/12/04 04:58:12;;;;;;;;;;;;;;;2.65;100.00;100860.03;5062126;28;20274;-61
2022/12/04 05:00:38;;;;;;;;;;;;;;;2.57;100.00;100865.91;5058319;28;19940;-59
2022/12/04 05:03:04;;;;;;;;;;;;;;;2.54;100.00;100868.81;5056697;28;19928;-61
2022/12/04 05:05:29;;;;;;;;;;;;;;;2.50;100.00;100868.22;5039001;28;19962;-61
2022/12/04 05:07:55;;;;;;;;;;;;;;;2.45;100.00;100872.19;5053576;28;19924;-61
2022/12/04 05:10:20;;;;;;;;;;;;;;;2.44;100.00;100871.34;5057705;28;20309;-60
2022/12/04 05:12:45;;;;;;;;;;;;;;;2.43;100.00;100876.72;5054796;28;20360;-61
2022/12/04 05:15:10;;;;;;;;;;;;;;;2.40;100.00;100870.78;5054814;28;20364;-61
2022/12/04 05:17:36;;;;;;;;;;;;;;;2.37;100.00;100891.97;5063127;28;20490;-61
2022/12/04 05:20:02;;;;;;;;;;;;;;;2.34;100.00;100881.75;5057426;28;19920;-62
2022/12/04 05:22:30;;;;;;;;;;;;;;;2.31;100.00;100886.44;5056707;28;20007;-61
2022/12/04 05:24:55;;;;;;;;;;;;;;;2.30;100.00;100893.44;5059195;28;19956;-61
2022/12/04 05:27:21;;;;;;;;;;;;;;;2.30;100.00;100898.69;5058875;28;20364;-59
2022/12/04 05:29:47;;;;;;;;;;;;;;;2.30;100.00;100901.31;5054554;28;19921;-61
2022/12/04 05:32:12;;;;;;;;;;;;;;;2.34;100.00;100902.69;5057430;28;19925;-61
2022/12/04 05:34:37;;;;;;;;;;;;;;;2.33;100.00;100906.28;5059110;28;19932;-61
2022/12/04 05:37:03;;;;;;;;;;;;;;;2.35;100.00;100913.97;5053397;28;19920;-61
2022/12/04 05:39:28;;;;;;;;;;;;;;;2.36;100.00;100913.03;5053564;28;19920;-61
2022/12/04 05:41:53;;;;;;;;;;;;;;;2.43;100.00;100910.72;5064837;28;20423;-61
2022/12/04 05:44:18;;;;;;;;;;;;;;;2.48;100.00;100903.31;5039527;28;19967;-61
2022/12/04 05:46:44;;;;;;;;;;;;;;;2.49;100.00;100910.25;5062242;28;20053;-61
2022/12/04 05:49:09;;;;;;;;;;;;;;;2.47;100.00;100912.97;5065559;28;20015;-61
2022/12/04 05:51:34;;;;;;;;;;;;;;;2.47;100.00;100918.22;5045073;28;20367;-61
2022/12/04 05:53:59;;;;;;;;;;;;;;;2.37;100.00;100912.91;5066103;28;19963;-61
2022/12/04 05:56:24;;;;;;;;;;;;;;;2.54;100.00;100918.53;5049833;28;20385;-60
2022/12/04 05:58:50;;;;;;;;;;;;;;;2.53;100.00;100915.09;5058643;28;19921;-57
2022/12/04 06:01:17;;;;;;;;;;;;;;;2.55;100.00;100920.19;5058121;28;19991;-60
2022/12/04 06:03:42;;;;;;;;;;;;;;;2.55;100.00;100912.34;5068849;28;19923;-59
2022/12/04 06:06:15;;;;;;;;;;;;;;;2.55;100.00;100913.16;5073309;28;20330;-60
2022/12/04 06:08:40;;;;;;;;;;;;;;;2.56;100.00;100916.63;5055711;28;20385;-59
2022/12/04 06:11:12;;;;;;;;;;;;;;;2.58;100.00;100914.69;5054816;28;19944;-60
2022/12/04 06:13:39;;;;;;;;;;;;;;;2.56;100.00;100909.59;5064107;28;20383;-59
2022/12/04 06:16:04;;;;;;;;;;;;;;;2.58;100.00;100914.69;5046125;28;19974;-60
2022/12/04 06:18:29;;;;;;;;;;;;;;;2.57;100.00;100916.47;5054456;28;20007;-60
2022/12/04 06:20:58;;;;;;;;;;;;;;;2.43;100.00;100921.19;5064683;28;20387;-58
2022/12/04 06:23:23;;;;;;;;;;;;;;;2.42;100.00;100919.56;5054181;28;19924;-59
2022/12/04 06:25:48;;;;;;;;;;;;;;;2.38;100.00;100924.22;5055733;28;19921;-60
2022/12/04 06:28:13;;;;;;;;;;;;;;;2.33;100.00;100921.97;5051491;28;19921;-59
2022/12/04 06:30:39;;;;;;;;;;;;;;;2.32;100.00;100919.47;5058861;28;19936;-58
2022/12/04 06:33:04;;;;;;;;;;;;;;;2.26;100.00;100917.38;5052721;28;19988;-60
2022/12/04 06:35:29;;;;;;;;;;;;;;;2.28;100.00;100926.75;5059512;28;19928;-60
2022/12/04 06:37:54;;;;;;;;;;;;;;;2.45;100.00;100927.16;5059374;28;20041;-60
2022/12/04 06:40:20;;;;;;;;;;;;;;;2.33;100.00;100919.38;5051374;28;20334;-60
2022/12/04 06:42:45;;;;;;;;;;;;;;;2.26;100.00;100931.28;5051450;28;20433;-61
2022/12/04 06:45:10;;;;;;;;;;;;;;;2.27;100.00;100929.50;5045624;28;19989;-61
2022/12/04 06:47:36;;;;;;;;;;;;;;;2.27;100.00;100930.34;5038355;28;19924;-61
2022/12/04 06:50:02;;;;;;;;;;;;;;;2.28;100.00;100931.16;5047578;28;19924;-61
2022/12/04 06:52:27;;;;;;;;;;;;;;;2.29;100.00;100932.81;5034705;28;20007;-61
2022/12/04 06:54:53;;;;;;;;;;;;;;;2.32;100.00;100930.78;5035284;28;20015;-60
2022/12/04 06:57:18;;;;;;;;;;;;;;;2.34;100.00;100934.09;5062877;28;19950;-59
2022/12/04 06:59:43;;;;;;;;;;;;;;;2.33;100.00;100934.25;5059252;28;19921;-61
2022/12/04 07:02:09;;;;;;;;;;;;;;;2.34;100.00;100935.88;5051277;28;19921;-60
2022/12/04 07:04:34;;;;;;;;;;;;;;;2.34;100.00;100930.66;5061079;28;19968;-60
2022/12/04 07:06:59;;;;;;;;;;;;;;;2.36;100.00;100936.59;5060455;28;19925;-61
2022/12/04 07:09:25;;;;;;;;;;;;;;;2.37;100.00;100931.22;5053695;28;19924;-62
2022/12/04 07:11:51;;;;;;;;;;;;;;;2.38;100.00;100935.50;5060716;28;20340;-61
2022/12/04 07:14:17;;;;;;;;;;;;;;;2.39;100.00;100934.53;5053602;28;19955;-61
2022/12/04 07:16:42;;;;;;;;;;;;;;;2.37;100.00;100931.22;5050465;28;19921;-61
2022/12/04 07:19:11;;;;;;;;;;;;;;;2.32;100.00;100938.66;5044946;28;19920;-61
2022/12/04 07:21:36;;;;;;;;;;;;;;;2.31;100.00;100933.53;5053788;28;20019;-62
2022/12/04 07:24:02;;;;;;;;;;;;;;;2.29;100.00;100932.81;5062790;28;20462;-62
2022/12/04 07:26:28;;;;;;;;;;;;;;;2.30;100.00;100937.94;5052483;28;19920;-61
2022/12/04 07:28:54;;;;;;;;;;;;;;;2.33;100.00;100939.47;5054376;28;19921;-60
2022/12/04 07:31:20;;;;;;;;;;;;;;;2.35;100.00;100940.16;5056795;28;20263;-61
2022/12/04 07:33:46;;;;;;;;;;;;;;;2.42;100.00;100937.88;5061228;28;19964;-61
2022/12/04 07:36:14;;;;;;;;;;;;;;;2.40;100.00;100943.22;5036190;28;19964;-61
2022/12/04 07:38:39;;;;;;;;;;;;;;;2.39;100.00;100944.19;5058188;28;20066;-61
2022/12/04 07:41:05;;;;;;;;;;;;;;;2.37;100.00;100941.69;5060581;28;20012;-62
2022/12/04 07:43:31;;;;;;;;;;;;;;;2.35;100.00;100951.47;5063075;28;19924;-61
2022/12/04 07:45:57;;;;;;;;;;;;;;;2.35;100.00;100951.47;5062309;28;19924;-61
2022/12/04 07:48:22;;;;;;;;;;;;;;;2.35;100.00;100956.72;5058131;28;19965;-62
2022/12/04 07:50:47;;;;;;;;;;;;;;;2.31;100.00;100954.47;5043089;28;20277;-62
2022/12/04 07:53:13;;;;;;;;;;;;;;;2.28;100.00;100949.50;5044463;28;19936;-61
2022/12/04 07:55:38;;;;;;;;;;;;;;;2.30;100.00;100948.41;5055262;28;19921;-61
2022/12/04 07:58:03;;;;;;;;;;;;;;;2.33;100.00;100949.94;5067051;28;19921;-62
2022/12/04 08:00:28;;;;;;;;;;;;;;;2.34;100.00;100954.22;5059847;28;19920;-61
2022/12/04 08:02:53;;;;;;;;;;;;;;;2.34;100.00;100957.66;5061631;28;20395;-62
2022/12/04 08:05:19;;;;;;;;;;;;;;;2.38;100.00;100953.00;5056361;28;20381;-62
2022/12/04 08:07:44;;;;;;;;;;;;;;;2.47;100.00;100954.84;5056822;28;19932;-62
2022/12/04 08:10:09;;;;;;;;;;;;;;;2.50;100.00;100956.38;5057501;28;20042;-61
2022/12/04 08:12:35;;;;;;;;;;;;;;;2.50;100.00;100953.78;5058514;28;19936;-62
2022/12/04 08:15:00;;;;;;;;;;;;;;;2.48;100.00;100953.06;5061546;28;19925;-62
2022/12/04 08:17:25;;;;;;;;;;;;;;;2.47;100.00;100961.88;5056809;28;19933;-61
2022/12/04 08:19:50;;;;;;;;;;;;;;;2.40;100.00;100954.53;5056083;28;20011;-62
2022/12/04 08:22:16;;;;;;;;;;;;;;;2.34;100.00;100960.25;5057298;28;20019;-61
2022/12/04 08:24:41;;;;;;;;;;;;;;;2.33;100.00;100971.69;5055900;28;19925;-61
2022/12/04 08:27:07;;;;;;;;;;;;;;;2.35;100.00;100976.78;5058535;28;19978;-61
2022/12/04 08:29:32;;;;;;;;;;;;;;;2.37;100.00;100965.25;5060340;28;20293;-62
2022/12/04 08:31:57;;;;;;;;;;;;;;;2.41;100.00;100965.84;5066568;28;20405;-61
2022/12/04 08:34:22;;;;;;;;;;;;;;;2.46;100.00;100981.16;5056079;28;20437;-61
2022/12/04 08:36:48;;;;;;;;;;;;;;;2.48;100.00;100987.09;5056737;28;20403;-62
2022/12/04 08:39:13;;;;;;;;;;;;;;;2.53;100.00;100987.53;5058737;28;20058;-61
2022/12/04 08:41:38;;;;;;;;;;;;;;;2.53;100.00;100982.31;5057924;28;19982;-63
2022/12/04 08:44:04;;;;;;;;;;;;;;;2.53;100.00;100983.16;5042610;28;19920;-63
2022/12/04 08:46:29;;;;;;;;;;;;;;;2.55;100.00;100983.00;5057392;28;19920;-62
2022/12/04 08:48:55;;;;;;;;;;;;;;;2.58;100.00;100982.75;5055379;28;20437;-62
2022/12/04 08:51:22;;;;;;;;;;;;;;;2.57;100.00;100984.56;5061432;28;19931;-62
2022/12/04 08:53:47;;;;;;;;;;;;;;;2.59;100.00;100987.06;5053260;28;20735;-61
2022/12/04 08:56:13;;;;;;;;;;;;;;;2.58;100.00;100978.38;5055016;28;19927;-62
2022/12/04 08:58:38;;;;;;;;;;;;;;;2.56;100.00;100987.31;5049209;28;20010;-61
2022/12/04 09:01:04;;;;;;;;;;;;;;;2.56;100.00;100984.69;5051360;28;19925;-60
2022/12/04 09:03:29;;;;;;;;;;;;;;;2.57;100.00;100988.97;5050671;28;20086;-61
2022/12/04 09:05:57;;;;;;;;;;;;;;;2.59;100.00;100990.50;5051718;28;20066;-62
2022/12/04 09:08:22;;;;;;;;;;;;;;;2.61;100.00;100982.53;5051748;28;19943;-61
2022/12/04 09:10:47;;;;;;;;;;;;;;;2.62;100.00;100986.78;5051220;28;20369;-62
2022/12/04 09:13:13;;;;;;;;;;;;;;;2.60;100.00;100986.91;5057619;28;19921;-61
2022/12/04 09:15:39;;;;;;;;;;;;;;;2.59;100.00;100987.88;5050827;28;20335;-61
2022/12/04 09:18:04;;;;;;;;;;;;;;;2.62;100.00;100992.03;5059751;28;19921;-60
2022/12/04 09:20:29;;;;;;;;;;;;;;;2.66;100.00;100995.22;5055969;28;19921;-61
2022/12/04 09:22:56;;;;;;;;;;;;;;;2.68;100.00;100998.53;5052537;28;20409;-62
2022/12/04 09:25:21;;;;;;;;;;;;;;;2.68;100.00;100993.31;5056094;28;20095;-62
2022/12/04 09:27:46;;;;;;;;;;;;;;;2.67;100.00;101002.13;5050021;28;20392;-62
2022/12/04 09:30:12;;;;;;;;;;;;;;;2.66;100.00;101000.44;5050351;28;19924;-62
2022/12/04 09:32:37;;;;;;;;;;;;;;;2.68;100.00;101001.97;5048430;28;20290;-61
2022/12/04 09:35:03;;;;;;;;;;;;;;;2.70;100.00;101005.31;5053739;28;19921;-62
2022/12/04 09:37:28;;;;;;;;;;;;;;;2.73;100.00;101002.44;5053786;28;19921;-62
2022/12/04 09:39:54;;;;;;;;;;;;;;;2.74;100.00;101009.34;5056956;28;19931;-62
2022/12/04 09:42:33;;;;;;;;;;;;;;;2.75;100.00;101005.75;5057579;28;20037;-62
2022/12/04 09:45:06;;;;;;;;;;;;;;;2.76;100.00;101010.06;5055081;28;19927;-62
2022/12/04 09:47:51;;;;;;;;;;;;;;;2.78;100.00;101021.22;5062722;28;20436;-62
2022/12/04 09:50:20;;;;;;;;;;;;;;;2.80;100.00;101019.31;5061535;28;20389;-62
2022/12/04 09:52:51;;;;;;;;;;;;;;;2.82;100.00;101021.81;5052272;28;20553;-62
2022/12/04 09:55:22;;;;;;;;;;;;;;;2.86;100.00;101027.63;5056411;28;19924;-63
2022/12/04 09:57:49;;;;;;;;;;;;;;;2.91;100.00;101025.44;5045647;28;19920;-62
2022/12/04 10:00:15;;;;;;;;;;;;;;;2.92;100.00;101024.47;5057340;28;19925;-62
2022/12/04 10:02:43;;;;;;;;;;;;;;;2.95;100.00;101026.84;5060847;28;20337;-61
2022/12/04 10:05:20;;;;;;;;;;;;;;;3.00;100.00;101024.69;5061582;28;19917;-60
2022/12/04 10:08:01;;;;;;;;;;;;;;;3.05;100.00;101027.75;5057171;28;19966;-60
2022/12/04 10:10:40;;;;;;;;;;;;;;;3.06;100.00;101026.78;5059556;28;19927;-61
2022/12/04 10:13:20;;;;;;;;;;;;;;;3.06;100.00;101021.53;5051986;28;19924;-61
2022/12/04 10:15:49;;;;;;;;;;;;;;;3.06;100.00;101024.16;5057579;28;19920;-61
2022/12/04 10:18:14;;;;;;;;;;;;;;;3.10;100.00;101024.72;5054845;28;20637;-61
2022/12/04 10:20:49;;;;;;;;;;;;;;;3.11;100.00;101021.97;5057035;28;19939;-62
2022/12/04 10:23:20;;;;;;;;;;;;;;;3.15;100.00;101022.53;5063339;28;19964;-61
2022/12/04 10:25:48;;;;;;;;;;;;;;;3.21;100.00;101016.81;5052820;28;19939;-61
2022/12/04 10:28:13;;;;;;;;;;;;;;;3.21;100.00;101016.81;5058112;28;20019;-60
2022/12/04 10:30:40;;;;;;;;;;;;;;;3.20;100.00;101015.97;5052007;28;20055;-65
2022/12/04 10:33:08;;;;;;;;;;;;;;;3.19;100.00;101018.72;5056169;28;19993;-60
2022/12/04 10:35:34;;;;;;;;;;;;;;;3.20;100.00;101013.34;5048508;28;20370;-61
2022/12/04 10:38:02;;;;;;;;;;;;;;;3.23;100.00;101015.72;5056053;28;19923;-61
2022/12/04 10:40:32;;;;;;;;;;;;;;;3.25;100.00;101016.41;5055678;28;20100;-61
2022/12/04 10:43:16;;;;;;;;;;;;;;;3.28;100.00;101018.78;5057872;28;20361;-61
2022/12/04 10:45:42;;;;;;;;;;;;;;;3.31;100.00;101012.44;5051836;28;20348;-61
2022/12/04 10:48:14;;;;;;;;;;;;;;;3.34;100.00;101008.72;5057874;28;19970;-61
2022/12/04 10:50:39;;;;;;;;;;;;;;;3.38;100.00;101015.34;5053222;28;20396;-62
2022/12/04 10:53:04;;;;;;;;;;;;;;;3.40;100.00;101005.56;5060119;28;19959;-62
2022/12/04 10:55:31;;;;;;;;;;;;;;;3.40;100.00;101013.44;5051318;28;20323;-62
2022/12/04 10:57:56;;;;;;;;;;;;;;;3.39;100.00;101004.75;5063603;28;20055;-62
2022/12/04 11:00:23;;;;;;;;;;;;;;;3.42;100.00;101001.84;5052433;28;19932;-62
2022/12/04 11:02:50;;;;;;;;;;;;;;;3.44;100.00;101004.34;5055741;28;19956;-62
2022/12/04 11:05:30;;;;;;;;;;;;;;;3.46;100.00;101005.06;5046817;28;19955;-61
2022/12/04 11:07:57;;;;;;;;;;;;;;;3.48;100.00;101003.97;5053341;28;19991;-62
2022/12/04 11:10:34;;;;;;;;;;;;;;;3.50;100.00;101002.03;5043849;28;19947;-62
2022/12/04 11:13:02;;;;;;;;;;;;;;;3.52;100.00;101001.91;5051379;28;20274;-62
2022/12/04 11:15:28;;;;;;;;;;;;;;;3.52;100.00;100986.16;5055631;28;19924;-62
2022/12/04 11:17:53;;;;;;;;;;;;;;;3.56;100.00;100994.59;5059219;28;19920;-62
2022/12/04 11:20:20;;;;;;;;;;;;;;;3.57;100.00;100998.88;5051549;28;19925;-62
2022/12/04 11:22:51;;;;;;;;;;;;;;;3.58;100.00;100996.13;5057877;28;20384;-62
2022/12/04 11:25:18;;;;;;;;;;;;;;;3.60;100.00;100996.00;5046821;28;19928;-62
2022/12/04 11:27:45;;;;;;;;;;;;;;;3.62;100.00;101001.94;5052551;28;19931;-60
2022/12/04 11:30:14;;;;;;;;;;;;;;;3.60;100.00;101002.06;5060721;28;19990;-62
2022/12/04 11:32:40;;;;;;;;;;;;;;;3.63;100.00;100987.84;5057959;28;19920;-62
2022/12/04 11:35:19;;;;;;;;;;;;;;;3.66;100.00;100996.28;5056772;28;19978;-59
2022/12/04 11:37:52;;;;;;;;;;;;;;;3.66;100.00;100995.44;5034984;28;19920;-62
2022/12/04 11:40:18;;;;;;;;;;;;;;;3.67;100.00;100995.34;5050048;28;20320;-61
2022/12/04 11:42:43;;;;;;;;;;;;;;;3.67;100.00;100992.72;5053631;28;19967;-61
2022/12/04 11:45:19;;;;;;;;;;;;;;;3.65;100.00;100992.00;5057329;28;19921;-60
2022/12/04 11:48:05;;;;;;;;;;;;;;;3.63;100.00;100995.72;5056197;28;20342;-61
2022/12/04 11:50:50;;;;;;;;;;;;;;;3.62;100.00;101000.16;5052206;28;19944;-62
2022/12/04 11:53:15;;;;;;;;;;;;;;;3.64;100.00;100985.13;5062911;28;19928;-60
2022/12/04 11:55:43;;;;;;;;;;;;;;;3.64;100.00;100992.97;5060210;28;19924;-61
2022/12/04 11:58:15;;;;;;;;;;;;;;;3.63;100.00;100988.69;5039144;28;20327;-60
2022/12/04 12:00:49;;;;;;;;;;;;;;;3.64;100.00;100994.75;5051230;28;20007;-60
2022/12/04 12:03:17;;;;;;;;;;;;;;;3.64;100.00;100989.50;5051389;28;19929;-60
2022/12/04 12:06:01;;;;;;;;;;;;;;;3.66;100.00;100992.81;5054163;28;19971;-60
2022/12/04 12:08:31;;;;;;;;;;;;;;;3.68;100.00;100996.16;5056967;28;19936;-60
2022/12/04 12:11:15;;;;;;;;;;;;;;;3.71;100.00;100994.09;5057492;28;20354;-61
2022/12/04 12:13:47;;;;;;;;;;;;;;;3.73;100.00;100991.34;5055577;28;19956;-60
2022/12/04 12:16:21;;;;;;;;;;;;;;;3.72;100.00;101000.19;5058471;28;19924;-60
2022/12/04 12:19:03;;;;;;;;;;;;;;;3.72;100.00;100998.38;5057657;28;19935;-61
2022/12/04 12:21:48;;;;;;;;;;;;;;;3.71;100.00;100990.63;5041588;28;20443;-63
2022/12/04 12:24:23;;;;;;;;;;;;;;;3.71;100.00;100994.09;5053971;28;20401;-61
2022/12/04 12:27:11;;;;;;;;;;;;;;;3.69;100.00;100989.94;5063021;28;19939;-62
2022/12/04 12:29:42;;;;;;;;;;;;;;;3.70;100.00;100984.56;5061718;28;19977;-60
2022/12/04 12:32:08;;;;;;;;;;;;;;;3.70;100.00;100987.19;5037324;28;20042;-60
2022/12/04 12:34:33;;;;;;;;;;;;;;;3.67;100.00;100982.22;5055413;28;19972;-60
2022/12/04 12:37:02;;;;;;;;;;;;;;;3.65;100.00;100984.13;5061153;28;19974;-60
2022/12/04 12:39:37;;;;;;;;;;;;;;;3.63;100.00;100975.56;5057260;28;20031;-61
2022/12/04 12:42:03;;;;;;;;;;;;;;;3.64;100.00;100972.00;5038728;28;19932;-60
2022/12/04 12:44:47;;;;;;;;;;;;;;;3.64;100.00;100971.16;5062956;28;19925;-61
2022/12/04 12:47:16;;;;;;;;;;;;;;;3.67;100.00;100969.09;5064022;28;19924;-62
2022/12/04 12:49:44;;;;;;;;;;;;;;;3.70;100.00;100968.00;5058437;28;19924;-61
2022/12/04 12:52:22;;;;;;;;;;;;;;;3.69;100.00;100961.94;5054488;28;19928;-61